Almond, Wisconsin
Current Conditions -  °F | °C
As of 2:56 PM on Friday 24 Oct 2014 (Local Time) from KY50 Reporting Station
Overcast Overcast  
Wind Chill: 14°   Ceiling: 100
Heat Index: 14°   Visibility: 10mi
Dew Point: 10°   Wind: 6mph
Humidity: 75%   Direction: 150°SSE
Pressure: 29.93"   Gusts: NA
Location:  44.26°N, 89.41°W
Report Text: KY50 241956Z AUTO 15005KT 10SM OVC001 14/10 A2993 RMK AO2 TSNO T01440100 SLP134
Loading
Personal Weather Stations






























Interactive Weather Map
Tropical Storm Tracking
New forecast layout! Learn more

10-Day Weather Forecast

Advertisements
Track Severe Weather on mobile